0°C Temp
-1°C Dewpoint
% Humidity
Temperature
16 KM/H
10 MPH
9 KTS
250°
West South
West

Wind Speed
Snow Showers
Pressure 1020.92 (hPa) - 30.15 (in)
Visibility 6.2 (mi) - 10.0 (km)

Current Conditions
EPKT
Location 6km (3.2mi)
Metar :EPKT 270430Z 25009KT 9999 -SN SCT009 OVC011 00/M01 Q1021 REFZRA
Thu 27th January 05:30 am

Airport
  Metar Aviation API Data Provided by https://www.checkwx.com/ CSS/SVG/PHP scripts by weather34.com © 2015-2022